Historique des mesures à Cassis (13260), France
Quotidien Résumé Mars 10, 2018 Unités:  Métrique/US    US   Métrique
« Précédent (Jour)
Suivant (Jour) »
Quotidien Hebdomadaire Mensuel Annuel Période au choix
  Maximum: Minimum: Moyenne:
Température: 32 °F /  TemperatureC °C 54.3 °F /  12.4 °C 55.4 °F /  13 °C
Point de rosée: 32 °F /  DewpointC °C 48 °F /  8.9 °C 50.2 °F /  10.1 °C
Humidité: Humidity % 76 % 79 %
Vitesse du vent: WindSpeedKMH mph /  0 km/h - 6.1 mph /  9.8 km/h
Rafales: WindSpeedGustKMH mph /  0 km/h - -
Vent:- - ESE
Pression: 0 in /  PressurehPa hPa 29.6 in /  1003.6 hPa -
Précipitations: 50.8 in /  2.0 mm    
Historical Graphs
 
 
Mesures pour : Mars 10, 2018
Heure Temperature Point de rosée Pression Vent Vitesse du vent Rafales Humidité Pluie (par heure) Conditions
32 °F /  TemperatureC °C 32 °F /  DewpointC °C 0 in /  PressurehPa hPa Calm     Humidity % 0 in /  HourlyPrecipMM mm SoftwareType W/m2
00:12 55.8 °F /  13.2 °C 48.6 °F /  9.2 °C 29.8 in /  1009.7 hPa SE 2.1 mph /  3.4 km/h 3.2 mph /  5.1 km/h 77 % 0 in /  0.0 mm open2300-1.11 W/m2
01:12 55.6 °F /  13.1 °C 48 °F /  8.9 °C 29.8 in /  1009.4 hPa Calm   8.2 mph /  13.2 km/h 76 % 0 in /  0.0 mm open2300-1.11 W/m2
02:12 54.3 °F /  12.4 °C 48.6 °F /  9.2 °C 29.8 in /  1009.0 hPa Calm   6.4 mph /  10.3 km/h 81 % 0 in /  0.0 mm open2300-1.11 W/m2
03:12 54.5 °F /  12.5 °C 48.6 °F /  9.2 °C 29.8 in /  1008.0 hPa NE 2.6 mph /  4.2 km/h 9.0 mph /  14.5 km/h 80 % 0 in /  0.0 mm open2300-1.11 W/m2
04:12 54.5 °F /  12.5 °C 48 °F /  8.9 °C 29.7 in /  1007.3 hPa ESE 17.2 mph /  27.7 km/h 17.2 mph /  27.7 km/h 79 % 0 in /  0.0 mm open2300-1.11 W/m2
05:11 54.5 °F /  12.5 °C 48.7 °F /  9.3 °C 29.7 in /  1006.7 hPa SSE 7.6 mph /  12.2 km/h 7.6 mph /  12.2 km/h 81 % 0 in /  0.0 mm open2300-1.11 W/m2
06:12 54.3 °F /  12.4 °C 49.5 °F /  9.7 °C 29.7 in /  1006.3 hPa ESE 3.5 mph /  5.6 km/h 14.8 mph /  23.8 km/h 84 % 0 in /  0.0 mm open2300-1.11 W/m2
07:11 54.3 °F /  12.4 °C 50.2 °F /  10.1 °C 29.7 in /  1006.7 hPa ESE 5.0 mph /  8 km/h 10.8 mph /  17.4 km/h 86 % 0 in /  0.0 mm open2300-1.11 W/m2
08:12 54.3 °F /  12.4 °C 50.5 °F /  10.3 °C 29.7 in /  1007.0 hPa ESE 2.6 mph /  4.2 km/h 4.7 mph /  7.6 km/h 87 % 25.4 in /  1.0 mm open2300-1.11 W/m2
09:12 54.7 °F /  12.6 °C 50.7 °F /  10.4 °C 29.7 in /  1007.0 hPa ESE 5.8 mph /  9.3 km/h 5.8 mph /  9.3 km/h 87 % 12.7 in /  0.5 mm open2300-1.11 W/m2
10:12 55.2 °F /  12.9 °C 51.4 °F /  10.8 °C 29.7 in /  1006.7 hPa ESE 4.7 mph /  7.6 km/h 4.7 mph /  7.6 km/h 87 % 12.7 in /  0.5 mm open2300-1.11 W/m2
11:12 56.5 °F /  13.6 °C 52.5 °F /  11.4 °C 29.7 in /  1006.7 hPa Calm   6.4 mph /  10.3 km/h 87 % 0 in /  0.0 mm open2300-1.11 W/m2
12:12 57 °F /  13.9 °C 53.2 °F /  11.8 °C 29.7 in /  1007.0 hPa ESE 1.1 mph /  1.8 km/h 1.1 mph /  1.8 km/h 87 % 0 in /  0.0 mm open2300-1.11 W/m2
13:12 57 °F /  13.9 °C 52.5 °F /  11.4 °C 29.7 in /  1006.7 hPa East 2.9 mph /  4.7 km/h 7.2 mph /  11.6 km/h 85 % 0 in /  0.0 mm open2300-1.11 W/m2
14:12 57.7 °F /  14.3 °C 52.9 °F /  11.6 °C 29.7 in /  1006.3 hPa SE 7.2 mph /  11.6 km/h 15.4 mph /  24.8 km/h 84 % 0 in /  0.0 mm open2300-1.11 W/m2
15:12 57.7 °F /  14.3 °C 52.9 °F /  11.6 °C 29.7 in /  1005.6 hPa East 4.0 mph /  6.4 km/h 4.0 mph /  6.4 km/h 84 % 0 in /  0.0 mm open2300-1.11 W/m2
16:12 58.5 °F /  14.7 °C 53.1 °F /  11.7 °C 29.7 in /  1005.0 hPa East 10.5 mph /  16.9 km/h 10.5 mph /  16.9 km/h 82 % 0 in /  0.0 mm open2300-1.11 W/m2
17:11 60.1 °F /  15.6 °C 53.2 °F /  11.8 °C 29.7 in /  1004.6 hPa ESE 12.6 mph /  20.3 km/h 12.6 mph /  20.3 km/h 78 % 0 in /  0.0 mm open2300-1.11 W/m2
18:11 58.5 °F /  14.7 °C 52 °F /  11.1 °C 29.7 in /  1004.3 hPa SE 20.6 mph /  33.2 km/h 20.6 mph /  33.2 km/h 79 % 0 in /  0.0 mm open2300-1.11 W/m2
19:12 57 °F /  13.9 °C 51.3 °F /  10.7 °C 29.7 in /  1004.3 hPa ENE 8.7 mph /  14 km/h 8.7 mph /  14 km/h 81 % 0 in /  0.0 mm open2300-1.11 W/m2
20:12 57 °F /  13.9 °C 50.9 °F /  10.5 °C 29.7 in /  1004.3 hPa ENE 5.8 mph /  9.3 km/h 6.1 mph /  9.8 km/h 80 % 0 in /  0.0 mm open2300-1.11 W/m2
21:12 57.4 °F /  14.1 °C 50.9 °F /  10.5 °C 29.7 in /  1004.6 hPa ENE 3.5 mph /  5.6 km/h 12.2 mph /  19.6 km/h 79 % 0 in /  0.0 mm open2300-1.11 W/m2
22:12 57.7 °F /  14.3 °C 50.9 °F /  10.5 °C 29.6 in /  1003.6 hPa ESE 17.2 mph /  27.7 km/h 17.2 mph /  27.7 km/h 78 % 0 in /  0.0 mm open2300-1.11 W/m2
23:12 57.4 °F /  14.1 °C 51.3 °F /  10.7 °C 29.7 in /  1005.3 hPa ESE 7.2 mph /  11.6 km/h 8.2 mph /  13.2 km/h 80 % 0 in /  0.0 mm open2300-1.11 W/m2
Observations météo à CASSIS
WU-History script by Weather Underground - 1 mb